sensor_id;sensor_type;location;lat;lon;timestamp;pressure;altitude;pressure_sealevel;temperature;humidity
21102;BME280;10709;49.006;12.100;2023-05-07T00:00:14;48781.31;;;-146.00;71.73
21102;BME280;10709;49.006;12.100;2023-05-07T00:02:42;48783.25;;;-146.00;71.90
21102;BME280;10709;49.006;12.100;2023-05-07T00:05:09;48759.75;;;-146.00;72.40
21102;BME280;10709;49.006;12.100;2023-05-07T00:07:36;48798.94;;;-146.00;72.79
21102;BME280;10709;49.006;12.100;2023-05-07T00:10:03;48781.31;;;-146.00;72.62
21102;BME280;10709;49.006;12.100;2023-05-07T00:12:30;48765.63;;;-146.00;72.69
21102;BME280;10709;49.006;12.100;2023-05-07T00:15:02;48777.38;;;-146.00;72.36
21102;BME280;10709;49.006;12.100;2023-05-07T00:17:29;48742.13;;;-146.00;72.50
21102;BME280;10709;49.006;12.100;2023-05-07T00:19:56;48777.38;;;-146.00;72.83
21102;BME280;10709;49.006;12.100;2023-05-07T00:22:22;48771.50;;;-146.00;72.78
21102;BME280;10709;49.006;12.100;2023-05-07T00:24:49;48765.63;;;-146.00;73.25
21102;BME280;10709;49.006;12.100;2023-05-07T00:27:15;48777.38;;;-146.00;73.03
21102;BME280;10709;49.006;12.100;2023-05-07T00:29:42;48779.34;;;-146.00;73.66
21102;BME280;10709;49.006;12.100;2023-05-07T00:32:08;48793.06;;;-146.00;73.27
21102;BME280;10709;49.006;12.100;2023-05-07T00:34:35;48761.72;;;-146.00;73.08
21102;BME280;10709;49.006;12.100;2023-05-07T00:37:02;48765.63;;;-146.00;73.36
21102;BME280;10709;49.006;12.100;2023-05-07T00:39:31;48802.84;;;-146.00;73.18
21102;BME280;10709;49.006;12.100;2023-05-07T00:41:58;48789.13;;;-146.00;73.57
21102;BME280;10709;49.006;12.100;2023-05-07T00:44:25;48757.78;;;-146.00;73.98
21102;BME280;10709;49.006;12.100;2023-05-07T00:46:51;48765.63;;;-146.00;74.25
21102;BME280;10709;49.006;12.100;2023-05-07T00:49:18;48800.88;;;-146.00;74.54
21102;BME280;10709;49.006;12.100;2023-05-07T00:51:46;48812.63;;;-146.00;74.10
21102;BME280;10709;49.006;12.100;2023-05-07T00:54:13;48769.53;;;-146.00;73.89
21102;BME280;10709;49.006;12.100;2023-05-07T00:56:39;48755.84;;;-146.00;73.97
21102;BME280;10709;49.006;12.100;2023-05-07T00:59:06;48793.06;;;-146.00;73.95
21102;BME280;10709;49.006;12.100;2023-05-07T01:01:33;48765.63;;;-146.00;74.67
21102;BME280;10709;49.006;12.100;2023-05-07T01:03:59;48757.78;;;-146.00;74.56
21102;BME280;10709;49.006;12.100;2023-05-07T01:06:28;48796.97;;;-146.00;74.38
21102;BME280;10709;49.006;12.100;2023-05-07T01:08:56;48781.31;;;-146.00;74.31
21102;BME280;10709;49.006;12.100;2023-05-07T01:11:23;48804.81;;;-146.00;74.10
21102;BME280;10709;49.006;12.100;2023-05-07T01:13:52;48793.06;;;-146.00;74.16
21102;BME280;10709;49.006;12.100;2023-05-07T01:16:19;48773.47;;;-146.00;74.15
21102;BME280;10709;49.006;12.100;2023-05-07T01:18:45;48757.78;;;-146.00;74.19
21102;BME280;10709;49.006;12.100;2023-05-07T01:21:16;48779.34;;;-146.00;74.24
21102;BME280;10709;49.006;12.100;2023-05-07T01:23:44;48753.88;;;-146.00;74.45
21102;BME280;10709;49.006;12.100;2023-05-07T01:26:12;48812.63;;;-146.00;74.99
21102;BME280;10709;49.006;12.100;2023-05-07T01:28:38;48800.88;;;-146.00;75.04
21102;BME280;10709;49.006;12.100;2023-05-07T01:31:06;48783.25;;;-146.00;75.14
21102;BME280;10709;49.006;12.100;2023-05-07T01:33:34;48781.31;;;-146.00;75.68
21102;BME280;10709;49.006;12.100;2023-05-07T01:36:03;48793.06;;;-146.00;75.55
21102;BME280;10709;49.006;12.100;2023-05-07T01:38:32;48763.66;;;-146.00;75.50
21102;BME280;10709;49.006;12.100;2023-05-07T01:40:59;48796.97;;;-146.00;75.96
21102;BME280;10709;49.006;12.100;2023-05-07T01:43:26;48793.06;;;-146.00;75.64
21102;BME280;10709;49.006;12.100;2023-05-07T01:45:53;48777.38;;;-146.00;75.35
21102;BME280;10709;49.006;12.100;2023-05-07T01:48:20;48781.31;;;-146.00;75.43
21102;BME280;10709;49.006;12.100;2023-05-07T01:50:47;48777.38;;;-146.00;75.18
21102;BME280;10709;49.006;12.100;2023-05-07T01:53:14;48763.66;;;-146.00;75.19
21102;BME280;10709;49.006;12.100;2023-05-07T01:55:41;48761.72;;;-146.00;75.85
21102;BME280;10709;49.006;12.100;2023-05-07T01:58:07;48773.47;;;-146.00;75.95
21102;BME280;10709;49.006;12.100;2023-05-07T02:00:34;48771.50;;;-146.00;75.44
21102;BME280;10709;49.006;12.100;2023-05-07T02:03:00;48793.06;;;-146.00;75.94
21102;BME280;10709;49.006;12.100;2023-05-07T02:05:27;48787.19;;;-146.00;76.35
21102;BME280;10709;49.006;12.100;2023-05-07T02:07:53;48781.31;;;-146.00;76.43
21102;BME280;10709;49.006;12.100;2023-05-07T02:10:20;48793.06;;;-146.00;76.61
21102;BME280;10709;49.006;12.100;2023-05-07T02:12:47;48769.53;;;-146.00;76.49
21102;BME280;10709;49.006;12.100;2023-05-07T02:15:13;48781.31;;;-146.00;76.48
21102;BME280;10709;49.006;12.100;2023-05-07T02:17:59;48800.88;;;-146.00;77.40
21102;BME280;10709;49.006;12.100;2023-05-07T02:20:26;48814.59;;;-146.00;77.43
21102;BME280;10709;49.006;12.100;2023-05-07T02:22:52;48812.63;;;-146.00;77.84
21102;BME280;10709;49.006;12.100;2023-05-07T02:25:19;48818.53;;;-146.00;78.20
21102;BME280;10709;49.006;12.100;2023-05-07T02:27:45;48840.06;;;-146.00;78.79
21102;BME280;10709;49.006;12.100;2023-05-07T02:30:12;48834.19;;;-146.00;79.23
21102;BME280;10709;49.006;12.100;2023-05-07T02:32:38;48808.72;;;-146.00;79.44
21102;BME280;10709;49.006;12.100;2023-05-07T02:35:05;48828.31;;;-146.00;79.35
21102;BME280;10709;49.006;12.100;2023-05-07T02:37:32;48816.56;;;-146.00;79.68
21102;BME280;10709;49.006;12.100;2023-05-07T02:39:58;48814.59;;;-146.00;80.47
21102;BME280;10709;49.006;12.100;2023-05-07T02:42:25;48851.81;;;-146.00;80.50
21102;BME280;10709;49.006;12.100;2023-05-07T02:44:51;48824.41;;;-146.00;79.71
21102;BME280;10709;49.006;12.100;2023-05-07T02:47:18;48806.75;;;-146.00;79.10
21102;BME280;10709;49.006;12.100;2023-05-07T02:49:44;48830.28;;;-146.00;79.24
21102;BME280;10709;49.006;12.100;2023-05-07T02:52:10;48812.63;;;-146.00;79.52
21102;BME280;10709;49.006;12.100;2023-05-07T02:54:37;48836.16;;;-146.00;79.28
21102;BME280;10709;49.006;12.100;2023-05-07T02:57:04;48820.47;;;-146.00;79.22
21102;BME280;10709;49.006;12.100;2023-05-07T02:59:30;48824.41;;;-146.00;79.29
21102;BME280;10709;49.006;12.100;2023-05-07T03:01:57;48836.16;;;-146.00;79.46
21102;BME280;10709;49.006;12.100;2023-05-07T03:04:23;48832.22;;;-146.00;79.78
21102;BME280;10709;49.006;12.100;2023-05-07T03:06:50;48855.75;;;-146.00;80.73
21102;BME280;10709;49.006;12.100;2023-05-07T03:09:16;48863.56;;;-146.00;80.59
21102;BME280;10709;49.006;12.100;2023-05-07T03:11:43;48847.91;;;-146.00;81.44
21102;BME280;10709;49.006;12.100;2023-05-07T03:14:09;48820.47;;;-146.00;81.13
21102;BME280;10709;49.006;12.100;2023-05-07T03:16:36;48840.06;;;-146.00;81.07
21102;BME280;10709;49.006;12.100;2023-05-07T03:19:02;48820.47;;;-146.00;80.81
21102;BME280;10709;49.006;12.100;2023-05-07T03:21:30;48863.56;;;-146.00;80.97
21102;BME280;10709;49.006;12.100;2023-05-07T03:23:56;48840.06;;;-146.00;81.30
21102;BME280;10709;49.006;12.100;2023-05-07T03:26:23;48887.09;;;-146.00;81.47
21102;BME280;10709;49.006;12.100;2023-05-07T03:28:49;48871.41;;;-146.00;82.09
21102;BME280;10709;49.006;12.100;2023-05-07T03:31:16;48881.22;;;-146.00;82.14
21102;BME280;10709;49.006;12.100;2023-05-07T03:33:56;48857.69;;;-146.00;82.33
21102;BME280;10709;49.006;12.100;2023-05-07T03:36:23;48840.06;;;-146.00;82.20
21102;BME280;10709;49.006;12.100;2023-05-07T03:38:50;48867.50;;;-146.00;81.97
21102;BME280;10709;49.006;12.100;2023-05-07T03:41:16;48883.16;;;-146.00;81.36
21102;BME280;10709;49.006;12.100;2023-05-07T03:43:43;48859.66;;;-146.00;81.65
21102;BME280;10709;49.006;12.100;2023-05-07T03:46:10;48896.88;;;-146.00;81.96
21102;BME280;10709;49.006;12.100;2023-05-07T03:48:37;48894.91;;;-146.00;81.56
21102;BME280;10709;49.006;12.100;2023-05-07T03:51:03;48867.50;;;-146.00;82.30
21102;BME280;10709;49.006;12.100;2023-05-07T03:53:30;48930.19;;;-146.00;83.41
21102;BME280;10709;49.006;12.100;2023-05-07T03:55:56;48916.47;;;-146.00;83.65
21102;BME280;10709;49.006;12.100;2023-05-07T03:58:23;48883.16;;;-146.00;83.00
21102;BME280;10709;49.006;12.100;2023-05-07T04:00:49;48863.56;;;-146.00;82.27
21102;BME280;10709;49.006;12.100;2023-05-07T04:03:16;48840.06;;;-146.00;81.80
21102;BME280;10709;49.006;12.100;2023-05-07T04:05:43;48896.88;;;-146.00;82.02
21102;BME280;10709;49.006;12.100;2023-05-07T04:08:10;48867.50;;;-146.00;81.73
21102;BME280;10709;49.006;12.100;2023-05-07T04:10:37;48855.75;;;-146.00;81.47
21102;BME280;10709;49.006;12.100;2023-05-07T04:13:03;48871.41;;;-146.00;82.06
21102;BME280;10709;49.006;12.100;2023-05-07T04:15:30;48875.34;;;-146.00;82.00
21102;BME280;10709;49.006;12.100;2023-05-07T04:17:57;48879.25;;;-146.00;82.00
21102;BME280;10709;49.006;12.100;2023-05-07T04:20:23;48898.84;;;-146.00;82.13
21102;BME280;10709;49.006;12.100;2023-05-07T04:22:50;48894.91;;;-146.00;81.65
21102;BME280;10709;49.006;12.100;2023-05-07T04:25:16;48867.50;;;-146.00;81.55
21102;BME280;10709;49.006;12.100;2023-05-07T04:27:43;48871.41;;;-146.00;81.43
21102;BME280;10709;49.006;12.100;2023-05-07T04:30:10;48865.53;;;-146.00;81.36
21102;BME280;10709;49.006;12.100;2023-05-07T04:32:37;48849.88;;;-146.00;81.57
21102;BME280;10709;49.006;12.100;2023-05-07T04:35:04;48898.84;;;-146.00;81.75
21102;BME280;10709;49.006;12.100;2023-05-07T04:37:32;48891.00;;;-146.00;82.01
21102;BME280;10709;49.006;12.100;2023-05-07T04:39:58;48930.19;;;-146.00;81.88
21102;BME280;10709;49.006;12.100;2023-05-07T04:42:25;48883.16;;;-146.00;82.19
21102;BME280;10709;49.006;12.100;2023-05-07T04:44:53;48906.69;;;-146.00;82.73
21102;BME280;10709;49.006;12.100;2023-05-07T04:47:19;48906.69;;;-146.00;82.56
21102;BME280;10709;49.006;12.100;2023-05-07T04:49:46;48894.91;;;-146.00;82.45
21102;BME280;10709;49.006;12.100;2023-05-07T04:52:12;48871.41;;;-146.00;81.97
21102;BME280;10709;49.006;12.100;2023-05-07T04:54:39;48928.22;;;-146.00;81.82
21102;BME280;10709;49.006;12.100;2023-05-07T04:57:05;48894.91;;;-146.00;81.87
21102;BME280;10709;49.006;12.100;2023-05-07T04:59:32;48867.50;;;-146.00;81.79
21102;BME280;10709;49.006;12.100;2023-05-07T05:01:59;48906.69;;;-146.00;82.14
21102;BME280;10709;49.006;12.100;2023-05-07T05:04:26;48894.91;;;-146.00;81.89
21102;BME280;10709;49.006;12.100;2023-05-07T05:06:52;48891.00;;;-146.00;81.45
21102;BME280;10709;49.006;12.100;2023-05-07T05:09:19;48900.78;;;-146.00;80.84
21102;BME280;10709;49.006;12.100;2023-05-07T05:11:45;48849.88;;;-146.00;79.19
21102;BME280;10709;49.006;12.100;2023-05-07T05:14:12;48840.06;;;-146.00;78.83
21102;BME280;10709;49.006;12.100;2023-05-07T05:16:38;48844.00;;;-146.00;78.66
21102;BME280;10709;49.006;12.100;2023-05-07T05:19:05;48851.81;;;-146.00;79.95
21102;BME280;10709;49.006;12.100;2023-05-07T05:21:31;48816.56;;;-146.00;79.92
21102;BME280;10709;49.006;12.100;2023-05-07T05:23:58;48851.81;;;-146.00;79.69
21102;BME280;10709;49.006;12.100;2023-05-07T05:26:24;48871.41;;;-146.00;79.50
21102;BME280;10709;49.006;12.100;2023-05-07T05:28:51;48859.66;;;-146.00;80.63
21102;BME280;10709;49.006;12.100;2023-05-07T05:31:18;48861.63;;;-146.00;81.22
21102;BME280;10709;49.006;12.100;2023-05-07T05:33:44;48863.56;;;-146.00;82.39
21102;BME280;10709;49.006;12.100;2023-05-07T05:36:11;48871.41;;;-146.00;82.37
21102;BME280;10709;49.006;12.100;2023-05-07T05:38:39;48892.97;;;-146.00;82.05
21102;BME280;10709;49.006;12.100;2023-05-07T05:41:06;48887.09;;;-146.00;82.18
21102;BME280;10709;49.006;12.100;2023-05-07T05:43:33;48912.56;;;-146.00;81.35
21102;BME280;10709;49.006;12.100;2023-05-07T05:45:59;48891.00;;;-146.00;81.34
21102;BME280;10709;49.006;12.100;2023-05-07T05:48:28;48847.91;;;-146.00;79.86
21102;BME280;10709;49.006;12.100;2023-05-07T05:50:55;48855.75;;;-146.00;78.91
21102;BME280;10709;49.006;12.100;2023-05-07T05:53:21;48859.66;;;-146.00;79.21
21102;BME280;10709;49.006;12.100;2023-05-07T05:55:48;48824.41;;;-146.00;77.90
21102;BME280;10709;49.006;12.100;2023-05-07T05:58:14;48851.81;;;-146.00;78.33
21102;BME280;10709;49.006;12.100;2023-05-07T06:00:41;48828.31;;;-146.00;76.24
21102;BME280;10709;49.006;12.100;2023-05-07T06:03:08;48851.81;;;-146.00;75.35
21102;BME280;10709;49.006;12.100;2023-05-07T06:05:34;48816.56;;;-146.00;75.84
21102;BME280;10709;49.006;12.100;2023-05-07T06:08:01;48824.41;;;-146.00;76.46
21102;BME280;10709;49.006;12.100;2023-05-07T06:10:27;48851.81;;;-146.00;76.61
21102;BME280;10709;49.006;12.100;2023-05-07T06:12:54;48800.88;;;-146.00;74.69
21102;BME280;10709;49.006;12.100;2023-05-07T06:15:20;48806.75;;;-146.00;73.71
21102;BME280;10709;49.006;12.100;2023-05-07T06:17:47;48808.72;;;-146.00;73.92
21102;BME280;10709;49.006;12.100;2023-05-07T06:20:13;48800.88;;;-146.00;74.21
21102;BME280;10709;49.006;12.100;2023-05-07T06:22:40;48798.94;;;-146.00;72.61
21102;BME280;10709;49.006;12.100;2023-05-07T06:25:07;48832.22;;;-146.00;72.31
21102;BME280;10709;49.006;12.100;2023-05-07T06:27:33;48812.63;;;-146.00;71.07
21102;BME280;10709;49.006;12.100;2023-05-07T06:29:59;48806.75;;;-146.00;71.90
21102;BME280;10709;49.006;12.100;2023-05-07T06:32:26;48832.22;;;-146.00;71.79
21102;BME280;10709;49.006;12.100;2023-05-07T06:34:53;48769.53;;;-146.00;70.62
21102;BME280;10709;49.006;12.100;2023-05-07T06:37:19;48793.06;;;-146.00;69.55
21102;BME280;10709;49.006;12.100;2023-05-07T06:39:46;48746.03;;;-146.00;69.15
21102;BME280;10709;49.006;12.100;2023-05-07T06:42:12;48761.72;;;-146.00;68.43
21102;BME280;10709;49.006;12.100;2023-05-07T06:44:39;48789.13;;;-146.00;68.00
21102;BME280;10709;49.006;12.100;2023-05-07T06:47:05;48791.09;;;-146.00;67.25
21102;BME280;10709;49.006;12.100;2023-05-07T06:49:32;48767.59;;;-146.00;67.44
21102;BME280;10709;49.006;12.100;2023-05-07T06:51:59;48793.06;;;-146.00;67.40
21102;BME280;10709;49.006;12.100;2023-05-07T06:54:25;48765.63;;;-146.00;66.78
21102;BME280;10709;49.006;12.100;2023-05-07T06:56:52;48769.53;;;-146.00;67.30
21102;BME280;10709;49.006;12.100;2023-05-07T06:59:18;48793.06;;;-146.00;68.71
21102;BME280;10709;49.006;12.100;2023-05-07T07:01:45;48789.13;;;-146.00;68.36
21102;BME280;10709;49.006;12.100;2023-05-07T07:04:12;48808.72;;;-146.00;68.90
21102;BME280;10709;49.006;12.100;2023-05-07T07:06:38;48781.31;;;-146.00;69.94
21102;BME280;10709;49.006;12.100;2023-05-07T07:09:05;48779.34;;;-146.00;69.42
21102;BME280;10709;49.006;12.100;2023-05-07T07:11:31;48785.22;;;-146.00;69.53
21102;BME280;10709;49.006;12.100;2023-05-07T07:13:58;48789.13;;;-146.00;69.92
21102;BME280;10709;49.006;12.100;2023-05-07T07:16:25;48791.09;;;-146.00;69.07
21102;BME280;10709;49.006;12.100;2023-05-07T07:18:52;48746.03;;;-146.00;68.31
21102;BME280;10709;49.006;12.100;2023-05-07T07:21:18;48785.22;;;-146.00;68.48
21102;BME280;10709;49.006;12.100;2023-05-07T07:23:45;48796.97;;;-146.00;68.19
21102;BME280;10709;49.006;12.100;2023-05-07T07:26:11;48757.78;;;-146.00;68.28
21102;BME280;10709;49.006;12.100;2023-05-07T07:28:44;48789.13;;;-146.00;68.53
21102;BME280;10709;49.006;12.100;2023-05-07T07:31:11;48793.06;;;-146.00;68.95
21102;BME280;10709;49.006;12.100;2023-05-07T07:33:38;48789.13;;;-146.00;69.05
21102;BME280;10709;49.006;12.100;2023-05-07T07:36:05;48793.06;;;-146.00;68.86
21102;BME280;10709;49.006;12.100;2023-05-07T07:38:33;48793.06;;;-146.00;68.29
21102;BME280;10709;49.006;12.100;2023-05-07T07:41:00;48808.72;;;-146.00;68.76
21102;BME280;10709;49.006;12.100;2023-05-07T07:43:27;48777.38;;;-146.00;68.13
21102;BME280;10709;49.006;12.100;2023-05-07T07:45:53;48777.38;;;-146.00;67.75
21102;BME280;10709;49.006;12.100;2023-05-07T07:48:20;48820.47;;;-146.00;67.72
21102;BME280;10709;49.006;12.100;2023-05-07T07:50:49;48802.84;;;-146.00;66.31
21102;BME280;10709;49.006;12.100;2023-05-07T07:53:16;48773.47;;;-146.00;66.00
21102;BME280;10709;49.006;12.100;2023-05-07T07:55:43;48793.06;;;-146.00;65.40
21102;BME280;10709;49.006;12.100;2023-05-07T07:58:10;48769.53;;;-146.00;63.75
21102;BME280;10709;49.006;12.100;2023-05-07T08:00:36;48824.41;;;-146.00;63.71
21102;BME280;10709;49.006;12.100;2023-05-07T08:03:03;48824.41;;;-146.00;64.46
21102;BME280;10709;49.006;12.100;2023-05-07T08:05:29;48800.88;;;-146.00;64.23
21102;BME280;10709;49.006;12.100;2023-05-07T08:07:56;48808.72;;;-146.00;64.90
21102;BME280;10709;49.006;12.100;2023-05-07T08:10:22;48802.84;;;-146.00;65.08
21102;BME280;10709;49.006;12.100;2023-05-07T08:12:49;48800.88;;;-146.00;65.04
21102;BME280;10709;49.006;12.100;2023-05-07T08:15:16;48822.44;;;-146.00;64.35
21102;BME280;10709;49.006;12.100;2023-05-07T08:17:43;48800.88;;;-146.00;64.91
21102;BME280;10709;49.006;12.100;2023-05-07T08:20:10;48808.72;;;-146.00;64.45
21102;BME280;10709;49.006;12.100;2023-05-07T08:22:37;48800.88;;;-146.00;63.89
21102;BME280;10709;49.006;12.100;2023-05-07T08:25:03;48761.72;;;-146.00;64.55
21102;BME280;10709;49.006;12.100;2023-05-07T08:27:30;48802.84;;;-146.00;63.85
21102;BME280;10709;49.006;12.100;2023-05-07T08:29:57;48777.38;;;-146.00;63.47
21102;BME280;10709;49.006;12.100;2023-05-07T08:32:23;48800.88;;;-146.00;63.16
21102;BME280;10709;49.006;12.100;2023-05-07T08:34:49;48812.63;;;-146.00;63.54
21102;BME280;10709;49.006;12.100;2023-05-07T08:37:16;48816.56;;;-146.00;63.65
21102;BME280;10709;49.006;12.100;2023-05-07T08:39:42;48796.97;;;-146.00;63.86
21102;BME280;10709;49.006;12.100;2023-05-07T08:42:09;48800.88;;;-146.00;63.91
21102;BME280;10709;49.006;12.100;2023-05-07T08:44:38;48804.81;;;-146.00;63.98
21102;BME280;10709;49.006;12.100;2023-05-07T08:47:06;48812.63;;;-146.00;63.90
21102;BME280;10709;49.006;12.100;2023-05-07T08:49:34;48832.22;;;-146.00;63.95
21102;BME280;10709;49.006;12.100;2023-05-07T08:52:01;48810.69;;;-146.00;62.91
21102;BME280;10709;49.006;12.100;2023-05-07T08:54:28;48796.97;;;-146.00;62.54
21102;BME280;10709;49.006;12.100;2023-05-07T08:56:55;48777.38;;;-146.00;63.38
21102;BME280;10709;49.006;12.100;2023-05-07T08:59:22;48808.72;;;-146.00;62.76
21102;BME280;10709;49.006;12.100;2023-05-07T09:01:48;48789.13;;;-146.00;62.62
21102;BME280;10709;49.006;12.100;2023-05-07T09:04:15;48816.56;;;-146.00;62.37
21102;BME280;10709;49.006;12.100;2023-05-07T09:06:42;48812.63;;;-146.00;62.40
21102;BME280;10709;49.006;12.100;2023-05-07T09:09:08;48798.94;;;-146.00;62.01
21102;BME280;10709;49.006;12.100;2023-05-07T09:11:35;48816.56;;;-146.00;62.10
21102;BME280;10709;49.006;12.100;2023-05-07T09:14:01;48808.72;;;-146.00;62.39
21102;BME280;10709;49.006;12.100;2023-05-07T09:16:29;48796.97;;;-146.00;61.57
21102;BME280;10709;49.006;12.100;2023-05-07T09:18:58;48828.31;;;-146.00;60.75
21102;BME280;10709;49.006;12.100;2023-05-07T09:21:25;48785.22;;;-146.00;61.14
21102;BME280;10709;49.006;12.100;2023-05-07T09:23:53;48789.13;;;-146.00;61.08
21102;BME280;10709;49.006;12.100;2023-05-07T09:26:23;48791.09;;;-146.00;61.84
21102;BME280;10709;49.006;12.100;2023-05-07T09:28:51;48793.06;;;-146.00;61.71
21102;BME280;10709;49.006;12.100;2023-05-07T09:31:17;48796.97;;;-146.00;61.74
21102;BME280;10709;49.006;12.100;2023-05-07T09:33:46;48818.53;;;-146.00;62.16
21102;BME280;10709;49.006;12.100;2023-05-07T09:36:13;48808.72;;;-146.00;61.63
21102;BME280;10709;49.006;12.100;2023-05-07T09:38:40;48793.06;;;-146.00;61.73
21102;BME280;10709;49.006;12.100;2023-05-07T09:41:11;48824.41;;;-146.00;61.06
21102;BME280;10709;49.006;12.100;2023-05-07T09:43:38;48789.13;;;-146.00;61.04
21102;BME280;10709;49.006;12.100;2023-05-07T09:46:15;48789.13;;;-146.00;60.25
21102;BME280;10709;49.006;12.100;2023-05-07T09:48:44;48812.63;;;-146.00;60.55
21102;BME280;10709;49.006;12.100;2023-05-07T09:51:18;48789.13;;;-146.00;60.15
21102;BME280;10709;49.006;12.100;2023-05-07T09:53:48;48804.81;;;-146.00;59.75
21102;BME280;10709;49.006;12.100;2023-05-07T09:56:14;48804.81;;;-146.00;60.27
21102;BME280;10709;49.006;12.100;2023-05-07T09:58:43;48808.72;;;-146.00;60.58
21102;BME280;10709;49.006;12.100;2023-05-07T10:01:11;48828.31;;;-146.00;60.84
21102;BME280;10709;49.006;12.100;2023-05-07T10:03:41;48826.34;;;-146.00;60.06
21102;BME280;10709;49.006;12.100;2023-05-07T10:06:10;48795.00;;;-146.00;61.23
21102;BME280;10709;49.006;12.100;2023-05-07T10:08:37;48796.97;;;-146.00;60.35
21102;BME280;10709;49.006;12.100;2023-05-07T10:11:04;48836.16;;;-146.00;60.72
21102;BME280;10709;49.006;12.100;2023-05-07T10:13:33;48844.00;;;-146.00;60.66
21102;BME280;10709;49.006;12.100;2023-05-07T10:16:03;48832.22;;;-146.00;60.20
21102;BME280;10709;49.006;12.100;2023-05-07T10:18:33;48824.41;;;-146.00;61.38
21102;BME280;10709;49.006;12.100;2023-05-07T10:21:07;48814.59;;;-146.00;60.51
21102;BME280;10709;49.006;12.100;2023-05-07T10:23:35;48820.47;;;-146.00;60.95
21102;BME280;10709;49.006;12.100;2023-05-07T10:26:03;48816.56;;;-146.00;61.69
21102;BME280;10709;49.006;12.100;2023-05-07T10:28:33;48818.53;;;-146.00;62.23
21102;BME280;10709;49.006;12.100;2023-05-07T10:33:50;48812.63;;;-146.00;61.98
21102;BME280;10709;49.006;12.100;2023-05-07T10:36:18;48814.59;;;-146.00;62.32
21102;BME280;10709;49.006;12.100;2023-05-07T10:38:44;48818.53;;;-146.00;61.61
21102;BME280;10709;49.006;12.100;2023-05-07T10:41:12;48812.63;;;-146.00;61.19
21102;BME280;10709;49.006;12.100;2023-05-07T10:43:40;48804.81;;;-146.00;62.23
21102;BME280;10709;49.006;12.100;2023-05-07T10:46:11;48812.63;;;-146.00;62.18
21102;BME280;10709;49.006;12.100;2023-05-07T10:51:27;48804.81;;;-146.00;61.43
21102;BME280;10709;49.006;12.100;2023-05-07T10:56:42;48814.59;;;-146.00;61.68
21102;BME280;10709;49.006;12.100;2023-05-07T11:01:57;48789.13;;;-146.00;59.94
21102;BME280;10709;49.006;12.100;2023-05-07T11:04:25;48812.63;;;-146.00;59.53
21102;BME280;10709;49.006;12.100;2023-05-07T11:17:33;48824.41;;;-146.00;57.83
21102;BME280;10709;49.006;12.100;2023-05-07T11:20:03;48820.47;;;-146.00;58.21
21102;BME280;10709;49.006;12.100;2023-05-07T11:24:59;48851.81;;;-146.00;57.30
21102;BME280;10709;49.006;12.100;2023-05-07T11:27:26;48804.81;;;-146.00;55.95
21102;BME280;10709;49.006;12.100;2023-05-07T11:29:53;48836.16;;;-146.00;57.13
21102;BME280;10709;49.006;12.100;2023-05-07T11:32:38;48812.63;;;-146.00;56.98
21102;BME280;10709;49.006;12.100;2023-05-07T11:35:05;48828.31;;;-146.00;57.32
21102;BME280;10709;49.006;12.100;2023-05-07T11:37:32;48828.31;;;-146.00;56.41
21102;BME280;10709;49.006;12.100;2023-05-07T11:40:21;48851.81;;;-146.00;54.33
21102;BME280;10709;49.006;12.100;2023-05-07T11:42:48;48812.63;;;-146.00;54.70
21102;BME280;10709;49.006;12.100;2023-05-07T11:45:23;48844.00;;;-146.00;53.27
21102;BME280;10709;49.006;12.100;2023-05-07T11:47:51;48832.22;;;-146.00;53.17
21102;BME280;10709;49.006;12.100;2023-05-07T11:50:17;48840.06;;;-146.00;55.84
21102;BME280;10709;49.006;12.100;2023-05-07T11:52:51;48824.41;;;-146.00;56.59
21102;BME280;10709;49.006;12.100;2023-05-07T11:55:18;48820.47;;;-146.00;56.88
21102;BME280;10709;49.006;12.100;2023-05-07T11:57:45;48804.81;;;-146.00;56.32
21102;BME280;10709;49.006;12.100;2023-05-07T12:00:12;48812.63;;;-146.00;55.57
21102;BME280;10709;49.006;12.100;2023-05-07T12:02:42;48832.22;;;-146.00;56.70
21102;BME280;10709;49.006;12.100;2023-05-07T12:05:09;48824.41;;;-146.00;56.31
21102;BME280;10709;49.006;12.100;2023-05-07T12:07:36;48808.72;;;-146.00;55.72
21102;BME280;10709;49.006;12.100;2023-05-07T12:10:06;48840.06;;;-146.00;56.12
21102;BME280;10709;49.006;12.100;2023-05-07T12:12:46;48834.19;;;-146.00;56.31
21102;BME280;10709;49.006;12.100;2023-05-07T12:15:16;48844.00;;;-146.00;55.21
21102;BME280;10709;49.006;12.100;2023-05-07T12:17:43;48789.13;;;-146.00;55.21
21102;BME280;10709;49.006;12.100;2023-05-07T12:20:10;48814.59;;;-146.00;54.41
21102;BME280;10709;49.006;12.100;2023-05-07T12:22:36;48832.22;;;-146.00;54.74
21102;BME280;10709;49.006;12.100;2023-05-07T12:25:03;48804.81;;;-146.00;54.65
21102;BME280;10709;49.006;12.100;2023-05-07T12:27:30;48828.31;;;-146.00;54.25
21102;BME280;10709;49.006;12.100;2023-05-07T12:29:57;48804.81;;;-146.00;53.56
21102;BME280;10709;49.006;12.100;2023-05-07T12:32:24;48820.47;;;-146.00;53.47
21102;BME280;10709;49.006;12.100;2023-05-07T12:34:51;48800.88;;;-146.00;53.72
21102;BME280;10709;49.006;12.100;2023-05-07T12:37:23;48826.34;;;-146.00;54.14
21102;BME280;10709;49.006;12.100;2023-05-07T12:42:36;48796.97;;;-146.00;53.03
21102;BME280;10709;49.006;12.100;2023-05-07T12:45:13;48844.00;;;-146.00;53.31
21102;BME280;10709;49.006;12.100;2023-05-07T12:47:46;48800.88;;;-146.00;53.57
21102;BME280;10709;49.006;12.100;2023-05-07T12:50:14;48796.97;;;-146.00;53.20
21102;BME280;10709;49.006;12.100;2023-05-07T12:52:40;48836.16;;;-146.00;52.88
21102;BME280;10709;49.006;12.100;2023-05-07T12:55:08;48810.69;;;-146.00;52.48
21102;BME280;10709;49.006;12.100;2023-05-07T12:57:39;48834.19;;;-146.00;52.39